Time;durP1;ratioP1;P1;durP2;ratioP2;P2;SDS_P1;SDS_P2;PMS_P1;PMS_P2;Temp;Humidity;BMP_temperature;BMP_pressure;BME280_temperature;BME280_humidity;BME280_pressure;Samples;Min_cycle;Max_cycle;Signal;HPM_P1;HPM_P2
2021/04/04 00:00:10;;;;;;;15.58;12.28;;;;;;;4.44;71.06;100669.70;1765928;81;21417;-71
2021/04/04 00:02:42;;;;;;;15.70;9.40;;;;;;;4.44;71.07;100666.27;1708093;82;21429;-74
2021/04/04 00:05:12;;;;;;;12.33;9.83;;;;;;;4.45;71.05;100671.42;1765997;81;21503;-73
2021/04/04 00:07:42;;;;;;;12.55;9.63;;;;;;;4.48;71.00;100677.80;1735779;81;21372;-71
2021/04/04 00:10:10;;;;;;;12.33;9.95;;;;;;;4.52;70.87;100672.06;1765882;81;20942;-72
2021/04/04 00:12:38;;;;;;;15.30;11.38;;;;;;;4.55;70.74;100667.59;1735769;82;21080;-72
2021/04/04 00:15:11;;;;;;;16.93;12.65;;;;;;;4.56;70.58;100665.86;1765788;81;21144;-71
2021/04/04 00:17:40;;;;;;;14.13;11.33;;;;;;;4.56;70.45;100667.16;1735912;82;21388;-72
2021/04/04 00:20:17;;;;;;;13.25;11.00;;;;;;;4.53;70.47;100660.30;1765830;81;21018;-72
2021/04/04 00:22:46;;;;;;;14.65;11.30;;;;;;;4.52;70.51;100660.37;1735828;82;21630;-71
2021/04/04 00:25:15;;;;;;;14.78;11.15;;;;;;;4.50;70.50;100661.71;1758452;81;21377;-71
2021/04/04 00:27:44;;;;;;;16.77;10.90;;;;;;;4.53;70.55;100671.14;1796321;78;21018;-71
2021/04/04 00:30:15;;;;;;;13.88;10.78;;;;;;;4.53;70.55;100666.79;1796217;80;20939;-71
2021/04/04 00:32:44;;;;;;;13.72;11.05;;;;;;;4.55;70.60;100665.45;1796243;80;20990;-72
2021/04/04 00:35:18;;;;;;;12.37;10.50;;;;;;;4.56;70.48;100658.91;1796237;80;20880;-72
2021/04/04 00:37:51;;;;;;;13.68;10.55;;;;;;;4.60;70.36;100653.60;1796224;80;21452;-72
2021/04/04 00:40:23;;;;;;;14.15;11.25;;;;;;;4.63;70.15;100654.36;1796146;78;21033;-73
2021/04/04 00:42:51;;;;;;;13.93;11.43;;;;;;;4.65;70.03;100655.61;1796341;79;21523;-72
2021/04/04 00:45:26;;;;;;;17.48;11.50;;;;;;;4.63;70.00;100656.95;1796188;78;20930;-71
2021/04/04 00:47:54;;;;;;;15.87;11.80;;;;;;;4.62;69.88;100658.30;1796529;80;20930;-71
2021/04/04 00:50:31;;;;;;;16.57;11.43;;;;;;;4.58;69.75;100654.98;1796227;79;21372;-72
2021/04/04 00:52:59;;;;;;;15.20;11.15;;;;;;;4.58;69.73;100651.08;1796167;79;21038;-71
2021/04/04 00:55:28;;;;;;;14.35;11.22;;;;;;;4.59;69.77;100658.41;1796245;79;21566;-71
2021/04/04 00:57:56;;;;;;;16.23;11.05;;;;;;;4.60;69.96;100660.09;1796097;80;21010;-71
2021/04/04 01:00:26;;;;;;;15.65;11.43;;;;;;;4.61;69.94;100658.75;1796218;79;20998;-70
2021/04/04 01:02:55;;;;;;;16.60;11.25;;;;;;;4.61;69.79;100654.86;1796208;79;21357;-70
2021/04/04 01:05:31;;;;;;;13.10;11.73;;;;;;;4.61;69.77;100652.26;1796119;78;21479;-71
2021/04/04 01:07:57;;;;;;;14.18;11.53;;;;;;;4.63;69.78;100651.76;1796171;79;21015;-70
2021/04/04 01:10:30;;;;;;;13.55;10.30;;;;;;;4.64;69.63;100648.24;1796305;78;21045;-71
2021/04/04 01:13:20;;;;;;;12.40;10.88;;;;;;;4.63;69.58;100641.38;1776680;79;21089;-72
2021/04/04 01:16:00;;;;;;;15.78;11.45;;;;;;;4.59;69.41;100638.94;1796456;79;22117;-70
2021/04/04 01:19:02;;;;;;;16.55;12.20;;;;;;;4.55;69.37;100636.42;1796448;78;21578;-71
2021/04/04 01:21:54;;;;;;;16.55;11.38;;;;;;;4.53;69.38;100627.00;1796359;79;21384;-71
2021/04/04 01:24:49;;;;;;;11.28;9.30;;;;;;;4.53;69.33;100632.19;1805176;79;21034;-72
2021/04/04 01:27:44;;;;;;;11.35;8.53;;;;;;;4.53;69.32;100629.59;1814841;79;21002;-72
2021/04/04 01:30:14;;;;;;;9.28;8.30;;;;;;;4.55;69.31;100632.98;1745653;81;21201;-72
2021/04/04 01:32:42;;;;;;;13.10;8.78;;;;;;;4.57;69.36;100624.70;1745509;81;20960;-71
2021/04/04 01:35:13;;;;;;;15.65;9.85;;;;;;;4.63;69.22;100628.84;1814755;79;20931;-71
2021/04/04 01:37:42;;;;;;;13.65;9.83;;;;;;;4.66;69.10;100624.83;1814728;78;20934;-71
2021/04/04 01:40:16;;;;;;;13.13;9.80;;;;;;;4.69;68.99;100622.98;1716664;81;20943;-71
2021/04/04 01:42:45;;;;;;;13.55;9.90;;;;;;;4.72;68.91;100622.86;1814784;79;21455;-72
2021/04/04 01:45:14;;;;;;;15.55;11.73;;;;;;;4.73;68.84;100625.00;1745786;81;20951;-72
2021/04/04 01:47:43;;;;;;;14.93;10.68;;;;;;;4.73;68.79;100619.80;1733498;81;21045;-70
2021/04/04 01:50:12;;;;;;;16.87;11.95;;;;;;;4.72;68.79;100616.36;1745874;81;20890;-70
2021/04/04 01:52:44;;;;;;;19.90;11.78;;;;;;;4.71;68.84;100634.16;1815885;78;20927;-70
2021/04/04 01:55:13;;;;;;;16.15;11.38;;;;;;;4.73;68.83;100629.73;1748498;82;21382;-69
2021/04/04 01:57:41;;;;;;;13.80;9.23;;;;;;;4.76;68.86;100630.10;1766543;80;20978;-70
2021/04/04 02:00:14;;;;;;;14.25;9.80;;;;;;;4.78;68.95;100630.44;1720503;82;20979;-69
2021/04/04 02:02:47;;;;;;;15.70;9.80;;;;;;;4.81;68.99;100635.12;1745859;80;20892;-69
2021/04/04 02:05:16;;;;;;;15.35;10.80;;;;;;;4.82;68.99;100636.35;1787812;79;21030;-70
2021/04/04 02:07:46;;;;;;;16.25;11.18;;;;;;;4.88;68.95;100635.30;1716659;82;22027;-71
2021/04/04 02:10:18;;;;;;;15.65;11.30;;;;;;;4.90;68.91;100635.63;1762751;81;20971;-70
2021/04/04 02:12:47;;;;;;;14.00;9.95;;;;;;;4.94;68.87;100635.09;1745623;81;21028;-71
2021/04/04 02:15:15;;;;;;;15.28;11.35;;;;;;;4.94;68.78;100642.42;1814761;79;21010;-71
2021/04/04 02:17:47;;;;;;;16.57;11.22;;;;;;;4.93;68.78;100638.56;1745683;81;20938;-71
2021/04/04 02:20:17;;;;;;;20.72;14.87;;;;;;;4.89;68.79;100641.75;1733356;81;21395;-72
2021/04/04 02:22:44;;;;;;;21.07;15.48;;;;;;;4.86;68.95;100643.14;1745640;81;21406;-69
2021/04/04 02:25:15;;;;;;;16.75;10.70;;;;;;;4.83;68.99;100644.56;1808627;79;20943;-70
2021/04/04 02:27:44;;;;;;;13.78;10.98;;;;;;;4.82;69.15;100648.50;1737437;82;21488;-69
2021/04/04 02:30:17;;;;;;;18.23;11.30;;;;;;;4.80;69.31;100644.66;1746743;82;21492;-70
2021/04/04 02:33:08;;;;;;;15.95;12.55;;;;;;;4.80;69.53;100642.52;1746576;82;21633;-69
2021/04/04 02:35:38;;;;;;;15.00;10.88;;;;;;;4.83;69.63;100637.23;1737273;82;21040;-70
2021/04/04 02:38:32;;;;;;;15.90;11.15;;;;;;;4.86;69.57;100633.20;1746639;82;21018;-69
2021/04/04 02:41:02;;;;;;;16.37;11.18;;;;;;;4.88;69.59;100634.84;1806171;79;20919;-70
2021/04/04 02:43:32;;;;;;;16.87;11.38;;;;;;;4.89;69.53;100639.16;1737372;82;20919;-69
2021/04/04 02:46:03;;;;;;;16.50;11.95;;;;;;;4.89;69.53;100643.47;1746601;82;21497;-71
2021/04/04 02:48:35;;;;;;;15.53;12.23;;;;;;;4.87;69.56;100636.19;1737309;82;21521;-70
2021/04/04 02:51:06;;;;;;;21.00;12.40;;;;;;;4.84;69.67;100635.84;1746609;82;21603;-70
2021/04/04 02:53:40;;;;;;;20.05;12.18;;;;;;;4.85;69.76;100645.81;1737304;82;21692;-70
2021/04/04 02:56:08;;;;;;;13.97;10.60;;;;;;;4.86;69.77;100639.70;1742989;82;21089;-70
2021/04/04 02:58:37;;;;;;;17.95;12.23;;;;;;;4.88;69.95;100644.39;1784104;79;22585;-70
2021/04/04 03:01:07;;;;;;;19.12;12.00;;;;;;;4.87;70.06;100640.08;1784473;79;21455;-70
2021/04/04 03:03:37;;;;;;;19.12;13.62;;;;;;;4.89;70.13;100643.05;1737298;82;21034;-71
2021/04/04 03:06:07;;;;;;;18.23;14.03;;;;;;;4.91;70.13;100642.97;1746539;82;21038;-70
2021/04/04 03:08:39;;;;;;;18.73;13.05;;;;;;;4.94;70.15;100653.27;1806180;79;20979;-70
2021/04/04 03:11:10;;;;;;;17.90;13.00;;;;;;;4.98;70.07;100650.50;1737460;82;21391;-72
2021/04/04 03:13:40;;;;;;;18.17;13.90;;;;;;;5.00;70.10;100658.23;1746578;82;21472;-71
2021/04/04 03:16:08;;;;;;;21.60;16.45;;;;;;;4.98;70.03;100655.70;1746624;82;20962;-71
2021/04/04 03:18:36;;;;;;;23.60;15.75;;;;;;;4.95;70.09;100657.09;1737279;82;20973;-72
2021/04/04 03:21:06;;;;;;;20.65;15.58;;;;;;;4.92;70.19;100659.81;1746531;82;21030;-70
2021/04/04 03:23:34;;;;;;;21.40;14.70;;;;;;;4.90;70.35;100662.92;1806098;79;21345;-71
2021/04/04 03:26:03;;;;;;;19.75;14.18;;;;;;;4.88;70.53;100669.08;1757245;81;20959;-70
2021/04/04 03:28:31;;;;;;;21.95;14.68;;;;;;;4.86;70.71;100675.62;1731477;80;20957;-70
2021/04/04 03:31:01;;;;;;;19.95;13.88;;;;;;;4.87;70.78;100671.26;1759094;81;20964;-72
2021/04/04 03:33:29;;;;;;;19.00;13.85;;;;;;;4.92;70.69;100681.91;1755889;80;20974;-71
2021/04/04 03:35:57;;;;;;;15.80;12.82;;;;;;;4.98;70.57;100686.05;1759085;81;21389;-71
2021/04/04 03:38:26;;;;;;;18.50;12.88;;;;;;;5.05;70.31;100685.38;1783902;80;21069;-69
2021/04/04 03:40:54;;;;;;;16.40;13.50;;;;;;;5.08;70.06;100682.20;1759073;81;20928;-71
2021/04/04 03:43:26;;;;;;;20.02;13.58;;;;;;;5.12;69.99;100682.95;1783885;80;20958;-70
2021/04/04 03:46:02;;;;;;;19.48;14.30;;;;;;;5.13;69.94;100679.42;1759177;81;20991;-72
2021/04/04 03:48:31;;;;;;;19.48;13.85;;;;;;;5.17;69.91;100679.26;1783940;80;21379;-70
2021/04/04 03:51:03;;;;;;;18.20;13.45;;;;;;;5.24;69.75;100681.64;1759046;81;20958;-70
2021/04/04 03:53:32;;;;;;;20.45;14.28;;;;;;;5.28;69.51;100684.53;1783925;80;20943;-73
2021/04/04 03:56:04;;;;;;;19.85;14.25;;;;;;;5.30;69.32;100693.12;1731769;81;20960;-71
2021/04/04 03:58:36;;;;;;;18.95;13.90;;;;;;;5.32;69.12;100691.31;1784028;80;20923;-71
2021/04/04 04:01:06;;;;;;;25.60;16.17;;;;;;;5.35;68.74;100689.88;1759084;81;21451;-70
2021/04/04 04:03:35;;;;;;;23.83;14.65;;;;;;;5.39;68.75;100691.47;1783845;80;20990;-70
2021/04/04 04:06:03;;;;;;;22.25;13.50;;;;;;;5.41;68.46;100692.27;1758997;81;20924;-70
2021/04/04 04:08:38;;;;;;;16.30;12.03;;;;;;;5.42;68.37;100696.55;1783799;80;20951;-72
2021/04/04 04:11:07;;;;;;;;;;;;;;;5.44;68.39;100696.50;1761725;81;21617;-70
2021/04/04 04:13:36;;;;;;;19.12;13.28;;;;;;;5.45;68.17;100704.25;1762017;80;22116;-71
2021/04/04 04:16:04;;;;;;;26.57;14.53;;;;;;;5.44;68.24;100701.24;1790153;80;21523;-71
2021/04/04 04:18:35;;;;;;;21.82;15.28;;;;;;;5.45;68.22;100702.08;1790340;80;20935;-73
2021/04/04 04:21:05;;;;;;;22.62;15.23;;;;;;;5.48;68.29;100704.59;1790283;80;20946;-71
2021/04/04 04:23:34;;;;;;;24.70;16.10;;;;;;;5.51;68.42;100706.59;1708249;81;20939;-71
2021/04/04 04:29:48;;;;;;;25.92;17.02;;;;;;;5.57;68.57;100709.44;1678157;83;21662;-71
2021/04/04 04:32:20;;;;;;;26.73;18.00;;;;;;;5.67;68.30;100708.63;1711928;83;21301;-74
2021/04/04 04:35:27;;;;;;;25.50;16.20;;;;;;;5.78;67.83;100702.13;1791235;80;28098;-73
2021/04/04 04:41:45;;;;;;;24.45;15.65;;;;;;;5.82;67.11;100711.94;1520306;91;21563;-72
2021/04/04 04:44:27;;;;;;;24.30;14.85;;;;;;;5.90;66.81;100707.30;1846117;76;22657;-73
2021/04/04 04:46:56;;;;;;;19.73;14.40;;;;;;;5.87;66.41;100703.52;1818252;79;21523;-72
2021/04/04 04:49:25;;;;;;;19.65;13.55;;;;;;;5.87;66.22;100707.42;1817996;78;21188;-71
2021/04/04 04:51:53;;;;;;;20.35;13.80;;;;;;;5.86;66.25;100703.11;1817966;77;21431;-71
2021/04/04 04:54:21;;;;;;;24.80;15.13;;;;;;;5.86;66.34;100708.78;1786727;79;20935;-70
2021/04/04 04:56:51;;;;;;;20.37;14.13;;;;;;;5.86;66.33;100712.22;1817936;79;20938;-72
2021/04/04 04:59:19;;;;;;;23.30;14.93;;;;;;;5.90;66.31;100710.36;1761484;79;20934;-71
2021/04/04 05:01:48;;;;;;;23.12;15.10;;;;;;;5.98;66.38;100721.33;1817995;79;21371;-70
2021/04/04 05:04:16;;;;;;;31.73;22.02;;;;;;;6.05;66.38;100725.41;1817906;77;21026;-73
2021/04/04 05:06:46;;;;;;;31.40;18.05;;;;;;;6.14;66.30;100743.27;1818006;77;21424;-71
2021/04/04 05:09:16;;;;;;;25.65;18.15;;;;;;;6.20;66.29;100739.55;1817927;79;20966;-71
2021/04/04 05:11:46;;;;;;;28.57;19.75;;;;;;;6.25;66.47;100739.36;1786985;79;20942;-72
2021/04/04 05:14:15;;;;;;;34.33;21.42;;;;;;;6.27;66.76;100740.16;1817986;77;21369;-70
2021/04/04 05:16:43;;;;;;;29.15;18.92;;;;;;;6.25;66.96;100744.58;1817840;79;20986;-72
2021/04/04 05:19:12;;;;;;;25.88;19.55;;;;;;;6.21;67.33;100747.77;1761232;79;20943;-71
2021/04/04 05:21:43;;;;;;;23.47;17.50;;;;;;;6.16;67.61;100753.17;1817938;79;20927;-71
2021/04/04 05:24:16;;;;;;;23.25;16.40;;;;;;;6.12;67.83;100750.75;1817900;77;20903;-70
2021/04/04 05:26:47;;;;;;;17.40;14.68;;;;;;;6.11;68.10;100748.57;1818099;77;22284;-71
2021/04/04 05:29:17;;;;;;;18.37;13.70;;;;;;;6.11;68.17;100756.84;1817872;79;21021;-72
2021/04/04 05:31:53;;;;;;;21.97;14.45;;;;;;;6.13;68.46;100766.28;1818011;79;20923;-70
2021/04/04 05:34:24;;;;;;;29.48;14.65;;;;;;;6.09;68.71;100762.56;1817973;77;20937;-70
2021/04/04 05:36:57;;;;;;;20.57;14.05;;;;;;;6.19;68.90;100777.77;1818067;77;21013;-71
2021/04/04 05:39:27;;;;;;;18.73;15.03;;;;;;;6.26;68.80;100778.38;1817582;79;21445;-70
2021/04/04 05:42:01;;;;;;;19.98;14.07;;;;;;;6.31;68.61;100776.89;1817904;78;20942;-69
2021/04/04 05:44:53;;;;;;;16.00;11.73;;;;;;;6.34;68.66;100775.48;1831318;78;20906;-72
2021/04/04 05:47:53;;;;;;;14.30;10.48;;;;;;;6.36;68.11;100775.81;1833060;78;21044;-71
2021/04/04 05:50:33;;;;;;;16.02;10.55;;;;;;;6.36;67.84;100769.30;1832035;78;20930;-72
2021/04/04 05:53:24;;;;;;;17.15;10.98;;;;;;;6.35;67.73;100774.56;1813098;78;21277;-72
2021/04/04 05:56:07;;;;;;;17.70;9.30;;;;;;;6.36;67.75;100778.42;1812944;78;21499;-72
2021/04/04 05:59:05;;;;;;;13.62;9.75;;;;;;;6.44;67.63;100772.89;1812839;79;21056;-72
2021/04/04 06:02:09;;;;;;;14.95;8.58;;;;;;;6.48;67.52;100764.04;1812954;79;21013;-73
2021/04/04 06:05:04;;;;;;;12.30;8.55;;;;;;;6.54;67.13;100765.10;1719914;83;21456;-72
2021/04/04 06:07:58;;;;;;;;;;;;;;;6.60;66.43;100760.08;1722690;83;21558;-71
2021/04/04 06:11:13;;;;;;;10.05;7.62;;;;;;;6.63;66.45;100758.20;1847866;76;22683;-71
2021/04/04 06:14:04;;;;;;;9.83;6.87;;;;;;;6.60;66.69;100776.58;1818016;78;21069;-73
2021/04/04 06:16:54;;;;;;;10.50;6.97;;;;;;;6.64;66.42;100777.28;1817951;78;21005;-72
2021/04/04 06:19:52;;;;;;;10.40;7.30;;;;;;;6.66;66.38;100782.44;1817923;79;20942;-71
2021/04/04 06:22:58;;;;;;;10.13;7.08;;;;;;;6.67;66.38;100786.30;1817996;78;20899;-71
2021/04/04 06:25:59;;;;;;;10.88;7.22;;;;;;;6.72;66.34;100797.83;1817973;79;20934;-73
2021/04/04 06:28:53;;;;;;;12.28;9.25;;;;;;;6.78;66.42;100791.91;1818015;79;21108;-83
2021/04/04 06:31:28;;;;;;;11.90;9.30;;;;;;;6.87;66.44;100802.84;1817999;79;21185;-78
2021/04/04 06:34:16;;;;;;;12.23;7.47;;;;;;;6.94;66.45;100803.84;1818073;79;21033;-80
2021/04/04 06:36:52;;;;;;;11.43;7.60;;;;;;;7.03;66.48;100815.66;1818017;77;20923;-79
2021/04/04 06:40:09;;;;;;;11.45;7.72;;;;;;;7.10;66.20;100813.63;1817546;77;20934;-79
2021/04/04 06:43:02;;;;;;;7.90;5.93;;;;;;;7.15;66.34;100814.28;1818226;79;20990;-77
2021/04/04 06:46:19;;;;;;;12.37;6.33;;;;;;;7.19;66.08;100823.67;1818069;77;21242;-81
2021/04/04 06:49:02;;;;;;;10.43;6.25;;;;;;;7.16;66.17;100817.27;1817894;79;20951;-78
2021/04/04 06:51:56;;;;;;;7.58;5.45;;;;;;;7.10;66.33;100820.99;1817638;77;20986;-75
2021/04/04 06:54:53;;;;;;;11.45;6.37;;;;;;;7.10;66.50;100822.30;1817980;77;20915;-76
2021/04/04 06:57:59;;;;;;;7.12;5.60;;;;;;;7.16;66.86;100817.27;1818070;77;21317;-76
2021/04/04 07:00:38;;;;;;;;;;;;;;;7.22;66.44;100823.06;1820670;79;21256;-75
2021/04/04 07:03:20;;;;;;;5.55;4.85;;;;;;;7.30;66.77;100819.30;1817900;79;20220;-75
2021/04/04 07:06:03;;;;;;;7.80;5.42;;;;;;;7.35;66.29;100818.64;1818056;77;21399;-73
2021/04/04 07:09:26;;;;;;;6.55;5.78;;;;;;;7.41;66.13;100811.39;1817293;78;21029;-76
2021/04/04 07:12:04;;;;;;;7.83;6.10;;;;;;;7.48;66.00;100817.19;1833001;78;21024;-76
2021/04/04 07:15:10;;;;;;;7.53;5.47;;;;;;;7.51;66.23;100814.43;1828401;77;22016;-76
2021/04/04 07:18:23;;;;;;;9.30;6.37;;;;;;;7.56;66.44;100813.80;1833001;77;20993;-75
2021/04/04 07:21:40;;;;;;;6.28;4.42;;;;;;;7.64;65.72;100814.28;1832629;78;20942;-74
2021/04/04 07:24:40;;;;;;;11.60;7.40;;;;;;;7.67;64.68;100815.46;1832316;78;21037;-77
2021/04/04 07:27:34;;;;;;;7.37;5.22;;;;;;;7.68;64.83;100815.00;1797781;78;20990;-76
2021/04/04 07:30:29;;;;;;;7.37;6.55;;;;;;;7.69;65.03;100812.77;1797894;79;21345;-77
2021/04/04 07:33:32;;;;;;;6.67;4.08;;;;;;;7.76;64.98;100814.20;1797920;79;21117;-80
2021/04/04 07:36:25;;;;;;;5.75;4.20;;;;;;;7.83;64.43;100805.17;1797795;79;21038;-76
2021/04/04 07:39:18;;;;;;;5.75;4.92;;;;;;;7.87;64.47;100815.03;1760000;81;21087;-82
2021/04/04 07:42:15;;;;;;;6.67;5.22;;;;;;;7.95;64.37;100813.36;1741158;82;21072;-76
2021/04/04 07:44:55;;;;;;;6.33;4.75;;;;;;;8.01;63.66;100808.70;1760103;81;22411;-80
2021/04/04 07:47:30;;;;;;;7.90;5.55;;;;;;;8.05;63.20;100813.34;1741255;82;21081;-80
2021/04/04 07:50:02;;;;;;;8.70;6.42;;;;;;;8.09;63.63;100805.72;1760022;80;21557;-78
2021/04/04 07:52:45;;;;;;;5.30;4.80;;;;;;;8.17;63.72;100808.83;1741186;82;21179;-80
2021/04/04 07:55:57;;;;;;;4.28;3.87;;;;;;;8.29;63.22;100810.88;1869602;75;22765;-80
2021/04/04 07:58:42;;;;;;;9.15;5.30;;;;;;;8.33;62.79;100807.64;1777934;78;21013;-81
2021/04/04 08:01:17;;;;;;;7.85;5.00;;;;;;;8.46;62.83;100815.78;1782057;79;21143;-80
2021/04/04 08:04:15;;;;;;;7.47;5.65;;;;;;;8.64;62.79;100807.03;1781398;78;21275;-77
2021/04/04 08:07:02;;;;;;;4.65;4.25;;;;;;;8.85;62.12;100801.22;1847903;76;22733;-81
2021/04/04 08:10:02;;;;;;;7.05;5.47;;;;;;;8.98;62.46;100808.44;1818164;79;20931;-82
2021/04/04 08:12:53;;;;;;;4.92;3.98;;;;;;;9.19;61.63;100802.13;1818038;79;21134;-83
2021/04/04 08:16:00;;;;;;;5.37;4.35;;;;;;;9.38;60.45;100798.55;1819000;77;20943;-81
2021/04/04 08:18:28;;;;;;;4.87;4.28;;;;;;;9.51;59.94;100796.98;1818343;79;21372;-80
2021/04/04 08:21:04;;;;;;;5.00;4.50;;;;;;;9.67;59.50;100794.39;1818401;78;21035;-82
2021/04/04 08:23:37;;;;;;;5.67;5.08;;;;;;;9.78;58.69;100788.11;1818639;79;20930;-76
2021/04/04 08:26:07;;;;;;;7.03;5.93;;;;;;;9.93;58.53;100791.21;1818234;77;21325;-76
2021/04/04 08:28:48;;;;;;;6.75;4.65;;;;;;;10.02;58.43;100784.62;1818051;77;21017;-76
2021/04/04 08:31:29;;;;;;;5.72;3.83;;;;;;;10.13;57.90;100784.88;1817963;77;20998;-73
2021/04/04 08:34:08;;;;;;;5.10;4.60;;;;;;;10.17;57.87;100784.25;1817925;79;20899;-74
2021/04/04 08:36:44;;;;;;;5.12;4.20;;;;;;;10.28;57.73;100792.36;1817974;77;20938;-79
2021/04/04 08:40:45;;;;;;;5.58;4.28;;;;;;;10.56;55.48;100784.26;1813537;79;22539;-80
2021/04/04 08:43:13;;;;;;;4.17;3.77;;;;;;;10.44;55.27;100791.53;1784116;80;21025;-79
2021/04/04 08:46:05;;;;;;;5.25;4.70;;;;;;;10.26;55.58;100782.89;1755988;80;21365;-80
2021/04/04 08:48:33;;;;;;;5.40;4.87;;;;;;;10.12;56.43;100784.98;1784057;80;21025;-82
2021/04/04 08:51:04;;;;;;;5.28;4.87;;;;;;;10.08;56.74;100781.67;1756230;80;21006;-81
2021/04/04 08:53:37;;;;;;;6.22;5.08;;;;;;;10.13;57.11;100783.56;1756896;80;21029;-80
2021/04/04 08:56:06;;;;;;;5.23;4.73;;;;;;;10.21;57.28;100780.53;1784536;80;21423;-80
2021/04/04 08:58:38;;;;;;;5.70;5.20;;;;;;;10.31;56.92;100776.48;1784245;80;21462;-83
2021/04/04 09:01:12;;;;;;;7.33;6.10;;;;;;;10.37;57.20;100780.07;1784084;80;20978;-76
2021/04/04 09:03:45;;;;;;;5.77;5.17;;;;;;;10.42;57.14;100776.34;1781909;80;20941;-78
2021/04/04 09:06:13;;;;;;;5.12;4.53;;;;;;;10.54;56.64;100773.05;1778409;79;21291;-77
2021/04/04 09:08:42;;;;;;;5.60;4.97;;;;;;;10.68;55.73;100774.86;1753069;81;20970;-78
2021/04/04 09:11:12;;;;;;;5.70;5.12;;;;;;;10.77;55.19;100769.08;1753010;81;21037;-78
2021/04/04 09:13:42;;;;;;;6.20;5.65;;;;;;;10.86;55.45;100764.59;1724922;81;21025;-75
2021/04/04 09:16:13;;;;;;;8.70;6.28;;;;;;;10.91;55.14;100758.60;1753068;81;21041;-80
2021/04/04 09:18:50;;;;;;;5.67;5.17;;;;;;;10.87;55.01;100764.99;1752996;81;21049;-81
2021/04/04 09:21:20;;;;;;;4.70;4.20;;;;;;;10.85;55.09;100760.74;1753185;81;20891;-78
2021/04/04 09:23:52;;;;;;;4.78;4.28;;;;;;;10.82;54.36;100757.00;1753040;81;21385;-74
2021/04/04 09:26:22;;;;;;;5.15;4.75;;;;;;;10.73;54.37;100762.31;1753032;81;20966;-75
2021/04/04 09:28:51;;;;;;;7.17;6.40;;;;;;;10.61;54.83;100757.33;1753045;81;20955;-75
2021/04/04 09:31:28;;;;;;;4.95;4.53;;;;;;;10.54;55.10;100757.31;1753080;80;21025;-76
2021/04/04 09:34:07;;;;;;;9.10;6.62;;;;;;;10.47;54.28;100756.81;1753093;81;20946;-74
2021/04/04 09:36:49;;;;;;;8.60;7.70;;;;;;;10.38;55.75;100748.14;1753020;81;21808;-76
2021/04/04 09:39:24;;;;;;;8.00;6.92;;;;;;;10.34;56.18;100752.73;1749230;80;20971;-76
2021/04/04 09:41:52;;;;;;;7.25;6.55;;;;;;;10.27;55.75;100753.12;1739981;82;21037;-83
2021/04/04 09:44:33;;;;;;;7.80;6.85;;;;;;;10.29;56.11;100750.84;1740028;82;20939;-74
2021/04/04 09:47:04;;;;;;;8.18;7.35;;;;;;;10.43;56.32;100740.88;1740007;82;20955;-74
2021/04/04 09:49:45;;;;;;;8.43;6.62;;;;;;;10.69;56.25;100748.52;1740047;82;21521;-76
2021/04/04 09:52:29;;;;;;;7.55;6.45;;;;;;;10.93;55.40;100740.16;1739804;82;20983;-80
2021/04/04 09:55:07;;;;;;;8.68;7.78;;;;;;;11.19;55.04;100733.34;1740238;82;20939;-80
2021/04/04 09:57:51;;;;;;;9.28;6.78;;;;;;;11.55;53.62;100736.80;1737036;82;21026;-77
2021/04/04 10:00:31;;;;;;;8.95;7.53;;;;;;;11.83;53.78;100737.70;1739608;82;20959;-80
2021/04/04 10:03:14;;;;;;;8.83;7.85;;;;;;;12.18;52.44;100743.81;1740143;82;22136;-79
2021/04/04 10:05:47;;;;;;;6.75;6.08;;;;;;;12.27;51.66;100730.06;1739769;82;21018;-77
2021/04/04 10:08:25;;;;;;;7.08;6.42;;;;;;;12.20;50.69;100734.88;1739773;82;20966;-78
2021/04/04 10:10:55;;;;;;;7.87;6.80;;;;;;;11.87;51.15;100732.59;1739603;81;20995;-81
2021/04/04 10:13:29;;;;;;;8.13;6.83;;;;;;;11.59;52.56;100732.20;1739594;82;20971;-79
2021/04/04 10:15:58;;;;;;;7.58;6.83;;;;;;;11.39;52.15;100724.25;1740211;82;22191;-78
2021/04/04 10:18:28;;;;;;;9.48;7.03;;;;;;;11.12;52.69;100726.78;1739948;81;20976;-77
2021/04/04 10:20:58;;;;;;;8.80;7.78;;;;;;;10.93;53.28;100723.09;1739501;82;20978;-78
2021/04/04 10:23:31;;;;;;;8.53;7.30;;;;;;;10.78;53.35;100720.47;1739552;82;20899;-78
2021/04/04 10:26:06;;;;;;;9.25;7.70;;;;;;;10.51;53.93;100718.13;1739906;82;21136;-79
2021/04/04 10:29:00;;;;;;;8.95;6.87;;;;;;;10.21;54.49;100717.63;1739518;82;21362;-73
2021/04/04 10:35:39;;;;;;;10.28;8.30;;;;;;;9.83;55.57;100715.39;1644932;85;20958;-76
2021/04/04 10:38:12;;;;;;;10.05;8.98;;;;;;;9.83;56.34;100709.31;1658173;85;20990;-76
2021/04/04 10:43:42;;;;;;;12.00;7.90;;;;;;;10.08;55.82;100704.38;1599994;89;21475;-77
2021/04/04 10:46:17;;;;;;;13.03;8.68;;;;;;;10.26;55.51;100702.95;1599842;89;21056;-74
2021/04/04 10:49:00;;;;;;;12.00;9.65;;;;;;;10.57;56.04;100696.33;1890116;75;22665;-77
2021/04/04 10:51:30;;;;;;;9.18;7.67;;;;;;;10.80;54.84;100696.74;1860960;77;21001;-78
2021/04/04 10:54:01;;;;;;;9.48;8.05;;;;;;;11.06;53.23;100693.87;1860936;77;21459;-80
2021/04/04 10:56:30;;;;;;;11.05;8.83;;;;;;;11.16;52.59;100689.76;1860920;77;21001;-77
2021/04/04 10:59:03;;;;;;;9.80;8.45;;;;;;;11.29;52.27;100683.73;1823133;78;20984;-82
2021/04/04 11:01:33;;;;;;;9.45;8.20;;;;;;;11.44;51.97;100691.14;1823283;78;21349;-83
2021/04/04 11:04:02;;;;;;;13.78;10.82;;;;;;;11.56;51.64;100682.03;1823273;78;21291;-79
2021/04/04 11:06:30;;;;;;;10.23;8.40;;;;;;;11.81;51.67;100685.24;1791987;78;21357;-79
2021/04/04 11:08:59;;;;;;;13.08;9.38;;;;;;;12.07;51.35;100682.73;1823121;78;20991;-82
2021/04/04 11:11:30;;;;;;;11.90;8.38;;;;;;;12.40;50.62;100684.92;1823123;78;21370;-79
2021/04/04 11:14:00;;;;;;;11.15;9.55;;;;;;;12.78;50.53;100681.52;1823108;78;21003;-82
2021/04/04 11:16:29;;;;;;;10.58;9.08;;;;;;;13.19;48.79;100683.55;1823013;78;20984;-83
2021/04/04 11:18:59;;;;;;;14.63;9.48;;;;;;;13.53;48.42;100685.14;1822895;78;21196;-82
2021/04/04 11:21:39;;;;;;;17.52;15.00;;;;;;;13.68;46.77;100679.61;1766503;78;21011;-79
2021/04/04 11:24:13;;;;;;;20.72;16.17;;;;;;;13.71;46.01;100678.55;1823147;78;21576;-81
2021/04/04 11:26:54;;;;;;;12.85;11.45;;;;;;;13.65;46.36;100686.44;1823294;78;20944;-83
2021/04/04 11:29:24;;;;;;;11.53;10.43;;;;;;;13.66;45.37;100677.56;1823140;78;20949;-77
2021/04/04 11:32:14;;;;;;;11.05;9.93;;;;;;;13.44;45.23;100675.62;1823055;78;21357;-84
2021/04/04 11:35:00;;;;;;;15.05;11.85;;;;;;;13.38;45.91;100681.80;1776929;80;20981;-84
2021/04/04 11:37:43;;;;;;;11.57;10.48;;;;;;;13.27;45.71;100674.16;1852296;77;22006;-81
2021/04/04 11:40:25;;;;;;;12.00;10.68;;;;;;;13.16;45.80;100674.53;1820159;78;20947;-78
2021/04/04 11:43:26;;;;;;;10.98;9.13;;;;;;;13.13;45.97;100672.13;1819973;78;21195;-78
2021/04/04 11:45:55;;;;;;;12.45;10.38;;;;;;;13.01;46.12;100673.83;1750106;82;21037;-78
2021/04/04 11:48:32;;;;;;;12.58;11.22;;;;;;;12.78;45.65;100675.39;1820021;78;21518;-81
2021/04/04 11:51:16;;;;;;;11.20;9.10;;;;;;;12.63;46.35;100673.35;1819924;78;21002;-80
2021/04/04 11:53:47;;;;;;;10.65;9.45;;;;;;;12.55;46.44;100676.97;1750136;82;20930;-79
2021/04/04 11:56:47;;;;;;;11.28;9.13;;;;;;;12.47;46.88;100666.11;1819989;78;22283;-79
2021/04/04 11:59:16;;;;;;;9.95;8.35;;;;;;;12.38;46.76;100668.88;1750008;82;20974;-79
2021/04/04 12:01:46;;;;;;;13.88;10.53;;;;;;;12.15;47.07;100667.78;1820069;78;21333;-79
2021/04/04 12:04:45;;;;;;;12.63;10.63;;;;;;;11.94;46.69;100670.87;1819867;78;20903;-79
2021/04/04 12:07:11;;;;;;;15.15;9.73;;;;;;;11.78;47.17;100669.69;1819694;78;20958;-79
2021/04/04 12:09:41;;;;;;;17.52;12.33;;;;;;;11.66;46.40;100666.52;1749918;81;21406;-79
2021/04/04 12:12:12;;;;;;;22.80;13.93;;;;;;;11.48;46.78;100661.13;1819871;78;20986;-79
2021/04/04 12:14:54;;;;;;;20.85;12.00;;;;;;;11.33;46.99;100662.44;1819994;78;20955;-80
2021/04/04 12:17:26;;;;;;;25.08;14.30;;;;;;;11.19;47.25;100655.91;1818223;78;20938;-78
2021/04/04 12:19:56;;;;;;;25.20;13.70;;;;;;;11.11;47.88;100649.80;1819931;78;20923;-80
2021/04/04 12:22:43;;;;;;;27.67;15.32;;;;;;;11.08;48.09;100652.62;1819945;78;21385;-78